Forside
METAR-TAF:

METAR-TAF

Lufthavne :

Moline, Illinois, USA

Breddekreds: 41-27-05N, længdekreds: 090-30-53W, højde: 179 m

Aktuelle vejr

Denne rapport blev lavet for 18 minutter siden, kl. 06:52 UTC
Vind 4 kt fra vestsydvest
Temperatur 4°C
Fugtighed 65%
Tryk 1016 hPa
Sigt: 16.1 km
skyfri

METAR: KMLI 290652Z AUTO 25004KT 10SM CLR 04/M02 A3001 RMK AO2 SLP166 T00391017

Tid: 01:10 (07:10 UTC)

Vejrudsigter

Denne rapport blev lavet for 1 time og 50 minutter siden, kl. 05:20 UTC
Foreløbig gælder fra 29 på 06 UTC til 30 på 06 UTC
Vind 8 kt fra sydvest
Sigt: 10 km
skyfri
Fra 29 på 1700 UTC
Vind 15 kt fra nordnordvest med vindstød på up til 25 kt
Sigt: 10 km
skyfri

TAF: KMLI 290520Z 2906/3006 23008KT P6SM SKC FM291700 33015G25KT P6SM SKC

Vejrobservationer og prognoser fra mere end 4000 lufthavne (METAR og TAF).

De gule og røde prikker repræsenterer de meteorologiske stationer.

Flyt musen over at se navnet på stationen.

Så klik over at se vejr observationer og prognoser.

At skifte det kort: Klik på de grønne knapper med et sort kors for at zoome ind; på den grønne knap med en bindestreg for at zoome ud; eller på de grønne pile for tilstødende kort.


METAR-TAF: